sensor_id;sensor_type;location;lat;lon;timestamp;pressure;altitude;pressure_sealevel;temperature;humidity
46638;BME280;32365;46.938;7.390;2023-02-28T08:58:56;95493.53;;;-0.26;72.06
46638;BME280;32365;46.938;7.390;2023-02-28T09:01:25;95487.50;;;-0.08;71.88
46638;BME280;32365;46.938;7.390;2023-02-28T09:03:53;95495.91;;;-0.24;72.55
46638;BME280;32365;46.938;7.390;2023-02-28T09:06:22;95497.38;;;-0.13;71.96
46638;BME280;32365;46.938;7.390;2023-02-28T09:08:49;95504.03;;;-0.12;72.34
46638;BME280;32365;46.938;7.390;2023-02-28T09:11:16;95502.63;;;0.02;70.73
46638;BME280;32365;46.938;7.390;2023-02-28T09:13:44;95506.41;;;-0.11;71.84
46638;BME280;32365;46.938;7.390;2023-02-28T09:16:15;95505.16;;;0.35;70.05
46638;BME280;32365;46.938;7.390;2023-02-28T09:18:43;95502.13;;;0.39;69.60
46638;BME280;32365;46.938;7.390;2023-02-28T09:21:12;95494.66;;;-0.20;71.45
46638;BME280;32365;46.938;7.390;2023-02-28T09:23:40;95506.44;;;0.14;72.31
46638;BME280;32365;46.938;7.390;2023-02-28T09:26:07;95507.69;;;0.35;71.11
46638;BME280;32365;46.938;7.390;2023-02-28T09:28:38;95508.31;;;0.61;70.28
46638;BME280;32365;46.938;7.390;2023-02-28T09:31:04;95517.53;;;0.71;69.21
46638;BME280;32365;46.938;7.390;2023-02-28T09:33:32;95518.38;;;0.47;69.59
46638;BME280;32365;46.938;7.390;2023-02-28T09:36:00;95503.03;;;1.28;66.69
46638;BME280;32365;46.938;7.390;2023-02-28T09:38:28;95511.06;;;1.48;66.55
46638;BME280;32365;46.938;7.390;2023-02-28T09:40:56;95505.34;;;1.46;66.17
46638;BME280;32365;46.938;7.390;2023-02-28T09:43:26;95503.91;;;2.59;62.52
46638;BME280;32365;46.938;7.390;2023-02-28T09:45:57;95501.31;;;2.06;62.83
46638;BME280;32365;46.938;7.390;2023-02-28T09:48:28;95500.81;;;2.11;63.36
46638;BME280;32365;46.938;7.390;2023-02-28T09:51:01;95513.06;;;2.54;61.45
46638;BME280;32365;46.938;7.390;2023-02-28T09:53:31;95503.47;;;4.04;58.92
46638;BME280;32365;46.938;7.390;2023-02-28T09:56:01;95507.09;;;3.73;55.93
46638;BME280;32365;46.938;7.390;2023-02-28T09:58:36;95504.41;;;4.46;55.49
46638;BME280;32365;46.938;7.390;2023-02-28T10:01:10;95498.44;;;3.74;56.28
46638;BME280;32365;46.938;7.390;2023-02-28T10:03:40;95504.59;;;1.92;60.86
46638;BME280;32365;46.938;7.390;2023-02-28T10:06:14;95513.63;;;1.79;63.48
46638;BME280;32365;46.938;7.390;2023-02-28T10:08:50;95504.72;;;2.22;61.17
46638;BME280;32365;46.938;7.390;2023-02-28T10:11:22;95508.88;;;1.99;63.49
46638;BME280;32365;46.938;7.390;2023-02-28T10:13:53;95509.53;;;1.70;64.53
46638;BME280;32365;46.938;7.390;2023-02-28T10:16:30;95510.31;;;2.17;62.57
46638;BME280;32365;46.938;7.390;2023-02-28T10:19:03;95519.53;;;1.40;64.68
46638;BME280;32365;46.938;7.390;2023-02-28T10:21:34;95514.75;;;2.23;62.46
46638;BME280;32365;46.938;7.390;2023-02-28T10:24:05;95521.34;;;1.94;64.34
46638;BME280;32365;46.938;7.390;2023-02-28T10:26:37;95521.03;;;1.66;64.27
46638;BME280;32365;46.938;7.390;2023-02-28T10:29:03;95521.44;;;1.78;64.10
46638;BME280;32365;46.938;7.390;2023-02-28T10:31:30;95515.78;;;1.28;66.61
46638;BME280;32365;46.938;7.390;2023-02-28T10:33:56;95511.13;;;2.18;63.81
46638;BME280;32365;46.938;7.390;2023-02-28T10:36:23;95511.25;;;1.69;64.32
46638;BME280;32365;46.938;7.390;2023-02-28T10:38:51;95516.34;;;1.46;65.43
46638;BME280;32365;46.938;7.390;2023-02-28T10:41:27;95525.00;;;1.68;64.45
46638;BME280;32365;46.938;7.390;2023-02-28T10:44:13;95523.84;;;0.91;65.90
46638;BME280;32365;46.938;7.390;2023-02-28T10:46:40;95524.28;;;1.12;66.32
46638;BME280;32365;46.938;7.390;2023-02-28T10:49:14;95521.97;;;1.65;64.34
46638;BME280;32365;46.938;7.390;2023-02-28T10:51:41;95523.44;;;1.67;64.17
46638;BME280;32365;46.938;7.390;2023-02-28T10:54:16;95522.47;;;1.92;63.47
46638;BME280;32365;46.938;7.390;2023-02-28T10:56:44;95519.41;;;1.73;64.71
46638;BME280;32365;46.938;7.390;2023-02-28T10:59:27;95526.31;;;1.88;63.12
46638;BME280;32365;46.938;7.390;2023-02-28T11:01:54;95514.94;;;1.35;64.52
46638;BME280;32365;46.938;7.390;2023-02-28T11:04:33;95510.22;;;1.87;63.66
46638;BME280;32365;46.938;7.390;2023-02-28T11:07:03;95509.66;;;1.45;64.56
46638;BME280;32365;46.938;7.390;2023-02-28T11:09:34;95514.44;;;1.48;64.62
46638;BME280;32365;46.938;7.390;2023-02-28T11:12:02;95521.22;;;1.16;65.02
46638;BME280;32365;46.938;7.390;2023-02-28T11:14:32;95520.31;;;1.09;66.70
46638;BME280;32365;46.938;7.390;2023-02-28T11:17:03;95522.66;;;1.90;63.34
46638;BME280;32365;46.938;7.390;2023-02-28T11:19:40;95521.00;;;1.43;64.02
46638;BME280;32365;46.938;7.390;2023-02-28T11:22:07;95515.13;;;1.97;62.62
46638;BME280;32365;46.938;7.390;2023-02-28T11:24:41;95519.09;;;1.68;63.92
46638;BME280;32365;46.938;7.390;2023-02-28T11:27:24;95522.16;;;1.32;64.38
46638;BME280;32365;46.938;7.390;2023-02-28T11:29:51;95522.69;;;1.19;65.31
46638;BME280;32365;46.938;7.390;2023-02-28T11:32:19;95522.38;;;2.08;62.73
46638;BME280;32365;46.938;7.390;2023-02-28T11:35:00;95513.22;;;1.91;61.84
46638;BME280;32365;46.938;7.390;2023-02-28T11:37:28;95517.50;;;1.35;63.08
46638;BME280;32365;46.938;7.390;2023-02-28T11:39:57;95525.88;;;1.84;63.27
46638;BME280;32365;46.938;7.390;2023-02-28T11:42:48;95528.56;;;1.59;63.79
46638;BME280;32365;46.938;7.390;2023-02-28T11:45:29;95516.00;;;2.04;63.98
46638;BME280;32365;46.938;7.390;2023-02-28T11:48:10;95516.22;;;2.94;60.53
46638;BME280;32365;46.938;7.390;2023-02-28T11:50:54;95516.91;;;2.35;62.32
46638;BME280;32365;46.938;7.390;2023-02-28T11:53:39;95512.50;;;2.05;62.65
46638;BME280;32365;46.938;7.390;2023-02-28T11:56:14;95510.19;;;2.72;60.99
46638;BME280;32365;46.938;7.390;2023-02-28T11:58:50;95509.31;;;2.03;61.59
46638;BME280;32365;46.938;7.390;2023-02-28T12:01:53;95506.31;;;3.21;58.93
46638;BME280;32365;46.938;7.390;2023-02-28T12:04:27;95500.44;;;3.05;58.98
46638;BME280;32365;46.938;7.390;2023-02-28T12:07:00;95498.31;;;2.41;60.41
46638;BME280;32365;46.938;7.390;2023-02-28T12:09:43;95517.72;;;3.03;59.53
46638;BME280;32365;46.938;7.390;2023-02-28T12:12:23;95509.31;;;2.80;59.82
46638;BME280;32365;46.938;7.390;2023-02-28T12:15:06;95508.63;;;2.47;62.43
46638;BME280;32365;46.938;7.390;2023-02-28T12:17:51;95511.41;;;2.61;61.57
46638;BME280;32365;46.938;7.390;2023-02-28T12:20:26;95506.94;;;3.23;60.24
46638;BME280;32365;46.938;7.390;2023-02-28T12:23:10;95505.25;;;2.70;59.70
46638;BME280;32365;46.938;7.390;2023-02-28T12:25:56;95501.13;;;2.84;58.95
46638;BME280;32365;46.938;7.390;2023-02-28T12:28:30;95508.44;;;3.17;59.05
46638;BME280;32365;46.938;7.390;2023-02-28T12:31:00;95511.34;;;3.14;59.01
46638;BME280;32365;46.938;7.390;2023-02-28T12:33:33;95515.97;;;2.66;59.25
46638;BME280;32365;46.938;7.390;2023-02-28T12:36:04;95503.91;;;2.59;61.14
46638;BME280;32365;46.938;7.390;2023-02-28T12:38:36;95502.66;;;2.55;61.13
46638;BME280;32365;46.938;7.390;2023-02-28T12:41:06;95516.28;;;1.86;62.97
46638;BME280;32365;46.938;7.390;2023-02-28T12:43:41;95507.63;;;2.19;62.96
46638;BME280;32365;46.938;7.390;2023-02-28T12:46:11;95503.34;;;1.88;62.90
46638;BME280;32365;46.938;7.390;2023-02-28T12:48:41;95499.84;;;2.12;62.30
46638;BME280;32365;46.938;7.390;2023-02-28T12:51:09;95504.69;;;2.60;61.19
46638;BME280;32365;46.938;7.390;2023-02-28T12:53:54;95499.44;;;2.76;58.76
46638;BME280;32365;46.938;7.390;2023-02-28T12:56:33;95498.03;;;2.74;59.49
46638;BME280;32365;46.938;7.390;2023-02-28T12:59:11;95490.41;;;2.51;59.43
46638;BME280;32365;46.938;7.390;2023-02-28T13:02:00;95488.50;;;3.13;59.00
46638;BME280;32365;46.938;7.390;2023-02-28T13:04:43;95486.75;;;2.98;59.10
46638;BME280;32365;46.938;7.390;2023-02-28T13:07:33;95494.47;;;2.60;59.55
46638;BME280;32365;46.938;7.390;2023-02-28T13:10:04;95484.00;;;3.15;59.99
46638;BME280;32365;46.938;7.390;2023-02-28T13:12:33;95487.28;;;3.82;57.85
46638;BME280;32365;46.938;7.390;2023-02-28T13:15:06;95498.72;;;3.43;56.95
46638;BME280;32365;46.938;7.390;2023-02-28T13:17:38;95493.44;;;4.09;55.99
46638;BME280;32365;46.938;7.390;2023-02-28T13:20:15;95483.44;;;4.65;53.96
46638;BME280;32365;46.938;7.390;2023-02-28T13:22:43;95486.03;;;3.93;55.50
46638;BME280;32365;46.938;7.390;2023-02-28T13:34:38;95499.69;;;2.67;58.12
46638;BME280;32365;46.938;7.390;2023-02-28T13:37:35;95506.41;;;3.13;58.48
46638;BME280;32365;46.938;7.390;2023-02-28T13:40:29;95503.41;;;2.79;59.15
46638;BME280;32365;46.938;7.390;2023-02-28T13:43:02;95502.88;;;2.84;58.73
46638;BME280;32365;46.938;7.390;2023-02-28T13:45:29;95499.09;;;3.10;57.21
46638;BME280;32365;46.938;7.390;2023-02-28T13:48:02;95499.84;;;2.50;58.69
46638;BME280;32365;46.938;7.390;2023-02-28T13:50:35;95500.59;;;3.04;56.55
46638;BME280;32365;46.938;7.390;2023-02-28T13:53:29;95495.22;;;4.30;53.23
46638;BME280;32365;46.938;7.390;2023-02-28T13:56:04;95498.47;;;4.18;53.43
46638;BME280;32365;46.938;7.390;2023-02-28T13:58:41;95499.41;;;3.36;55.32
46638;BME280;32365;46.938;7.390;2023-02-28T14:01:31;95507.47;;;3.03;56.41
46638;BME280;32365;46.938;7.390;2023-02-28T14:04:23;95513.06;;;3.44;55.49
46638;BME280;32365;46.938;7.390;2023-02-28T14:06:59;95511.94;;;3.83;55.62
46638;BME280;32365;46.938;7.390;2023-02-28T14:09:28;95514.78;;;3.73;54.13
46638;BME280;32365;46.938;7.390;2023-02-28T14:11:55;95508.66;;;3.89;54.19
46638;BME280;32365;46.938;7.390;2023-02-28T14:14:55;95521.47;;;3.37;54.46
46638;BME280;32365;46.938;7.390;2023-02-28T14:17:24;95523.59;;;3.34;55.27
46638;BME280;32365;46.938;7.390;2023-02-28T14:19:51;95518.19;;;2.69;57.51
46638;BME280;32365;46.938;7.390;2023-02-28T14:22:38;95528.50;;;2.60;57.84
46638;BME280;32365;46.938;7.390;2023-02-28T14:25:16;95518.72;;;3.54;55.84
46638;BME280;32365;46.938;7.390;2023-02-28T14:27:50;95508.09;;;3.72;55.65
46638;BME280;32365;46.938;7.390;2023-02-28T14:30:57;95512.41;;;3.93;53.96
46638;BME280;32365;46.938;7.390;2023-02-28T14:33:38;95519.13;;;3.73;54.64
46638;BME280;32365;46.938;7.390;2023-02-28T14:36:14;95520.28;;;3.55;54.11
46638;BME280;32365;46.938;7.390;2023-02-28T14:38:46;95520.72;;;2.39;58.07
46638;BME280;32365;46.938;7.390;2023-02-28T14:41:20;95523.41;;;3.35;57.63
46638;BME280;32365;46.938;7.390;2023-02-28T14:43:52;95525.97;;;4.30;54.47
46638;BME280;32365;46.938;7.390;2023-02-28T14:46:19;95514.00;;;4.16;53.59
46638;BME280;32365;46.938;7.390;2023-02-28T14:48:46;95520.56;;;4.69;51.73
46638;BME280;32365;46.938;7.390;2023-02-28T14:51:18;95519.53;;;3.39;55.80
46638;BME280;32365;46.938;7.390;2023-02-28T14:53:49;95529.16;;;2.77;56.90
46638;BME280;32365;46.938;7.390;2023-02-28T14:56:20;95519.78;;;2.31;58.48
46638;BME280;32365;46.938;7.390;2023-02-28T14:58:51;95531.16;;;1.82;59.89
46638;BME280;32365;46.938;7.390;2023-02-28T15:01:20;95535.53;;;1.34;61.94
46638;BME280;32365;46.938;7.390;2023-02-28T15:03:47;95529.78;;;1.32;62.41
46638;BME280;32365;46.938;7.390;2023-02-28T15:06:16;95531.22;;;1.74;62.22
46638;BME280;32365;46.938;7.390;2023-02-28T15:08:43;95529.19;;;1.21;64.45
46638;BME280;32365;46.938;7.390;2023-02-28T15:11:15;95536.03;;;1.21;63.11
46638;BME280;32365;46.938;7.390;2023-02-28T15:13:45;95533.16;;;1.24;63.10
46638;BME280;32365;46.938;7.390;2023-02-28T15:16:16;95538.19;;;1.01;64.52
46638;BME280;32365;46.938;7.390;2023-02-28T15:18:46;95536.44;;;1.01;64.87
46638;BME280;32365;46.938;7.390;2023-02-28T15:21:15;95538.88;;;1.34;63.60
46638;BME280;32365;46.938;7.390;2023-02-28T15:23:45;95542.56;;;1.63;62.16
46638;BME280;32365;46.938;7.390;2023-02-28T15:26:16;95532.88;;;1.19;62.98
46638;BME280;32365;46.938;7.390;2023-02-28T15:28:43;95536.22;;;0.22;66.41
46638;BME280;32365;46.938;7.390;2023-02-28T15:31:20;95542.56;;;0.42;65.90
46638;BME280;32365;46.938;7.390;2023-02-28T15:33:52;95539.53;;;0.64;66.12
46638;BME280;32365;46.938;7.390;2023-02-28T15:36:21;95541.13;;;0.48;66.47
46638;BME280;32365;46.938;7.390;2023-02-28T15:38:53;95546.38;;;0.38;65.77
46638;BME280;32365;46.938;7.390;2023-02-28T15:41:27;95547.97;;;0.31;66.09
46638;BME280;32365;46.938;7.390;2023-02-28T15:44:16;95547.19;;;0.14;66.86
46638;BME280;32365;46.938;7.390;2023-02-28T15:46:45;95549.41;;;0.25;67.00
46638;BME280;32365;46.938;7.390;2023-02-28T15:49:21;95548.09;;;-0.04;68.31
46638;BME280;32365;46.938;7.390;2023-02-28T15:51:49;95545.59;;;0.05;68.74
46638;BME280;32365;46.938;7.390;2023-02-28T15:54:19;95558.91;;;-0.10;68.61
46638;BME280;32365;46.938;7.390;2023-02-28T15:56:52;95551.75;;;-0.14;69.29
46638;BME280;32365;46.938;7.390;2023-02-28T15:59:22;95555.19;;;-0.32;68.91
46638;BME280;32365;46.938;7.390;2023-02-28T16:02:03;95551.88;;;-0.16;69.76
46638;BME280;32365;46.938;7.390;2023-02-28T16:04:54;95545.19;;;-0.17;69.62
46638;BME280;32365;46.938;7.390;2023-02-28T16:07:21;95564.88;;;-0.36;68.93
46638;BME280;32365;46.938;7.390;2023-02-28T16:09:47;95553.75;;;-0.43;71.32
46638;BME280;32365;46.938;7.390;2023-02-28T16:12:15;95550.56;;;-0.37;70.28
46638;BME280;32365;46.938;7.390;2023-02-28T16:14:42;95556.97;;;-0.24;69.84
46638;BME280;32365;46.938;7.390;2023-02-28T16:17:16;95563.66;;;-0.66;71.24
46638;BME280;32365;46.938;7.390;2023-02-28T16:19:45;95566.78;;;-0.38;69.90
46638;BME280;32365;46.938;7.390;2023-02-28T16:22:12;95568.91;;;-0.68;70.86
46638;BME280;32365;46.938;7.390;2023-02-28T16:24:38;95576.69;;;-0.69;70.91
46638;BME280;32365;46.938;7.390;2023-02-28T16:27:06;95571.94;;;-0.64;71.89
46638;BME280;32365;46.938;7.390;2023-02-28T16:29:35;95571.66;;;-0.53;71.55
46638;BME280;32365;46.938;7.390;2023-02-28T16:32:04;95570.31;;;-0.73;71.28
46638;BME280;32365;46.938;7.390;2023-02-28T16:34:31;95583.22;;;-0.93;71.90
46638;BME280;32365;46.938;7.390;2023-02-28T16:36:58;95567.75;;;-1.08;72.55
46638;BME280;32365;46.938;7.390;2023-02-28T16:39:24;95583.38;;;-0.95;72.62
46638;BME280;32365;46.938;7.390;2023-02-28T16:41:51;95587.38;;;-0.92;72.70
46638;BME280;32365;46.938;7.390;2023-02-28T16:44:26;95583.78;;;-0.81;71.70
46638;BME280;32365;46.938;7.390;2023-02-28T16:46:54;95590.66;;;-1.00;72.11
46638;BME280;32365;46.938;7.390;2023-02-28T16:49:21;95592.41;;;-1.00;72.14
46638;BME280;32365;46.938;7.390;2023-02-28T16:51:47;95585.38;;;-1.06;72.77
46638;BME280;32365;46.938;7.390;2023-02-28T16:54:14;95584.91;;;-1.02;72.76
46638;BME280;32365;46.938;7.390;2023-02-28T16:56:43;95595.75;;;-1.00;73.48
46638;BME280;32365;46.938;7.390;2023-02-28T16:59:10;95600.53;;;-1.23;73.88
46638;BME280;32365;46.938;7.390;2023-02-28T17:01:38;95607.69;;;-1.18;74.09
46638;BME280;32365;46.938;7.390;2023-02-28T17:04:06;95602.41;;;-0.99;73.12
46638;BME280;32365;46.938;7.390;2023-02-28T17:06:32;95610.03;;;-1.25;73.88
46638;BME280;32365;46.938;7.390;2023-02-28T17:08:59;95608.66;;;-1.19;72.61
46638;BME280;32365;46.938;7.390;2023-02-28T17:11:26;95609.19;;;-1.08;73.47
46638;BME280;32365;46.938;7.390;2023-02-28T17:13:52;95611.69;;;-1.16;73.85
46638;BME280;32365;46.938;7.390;2023-02-28T17:16:23;95613.34;;;-1.25;74.32
46638;BME280;32365;46.938;7.390;2023-02-28T17:18:58;95620.38;;;-1.00;73.76
46638;BME280;32365;46.938;7.390;2023-02-28T17:21:27;95623.50;;;-1.06;73.38
46638;BME280;32365;46.938;7.390;2023-02-28T17:23:53;95623.22;;;-1.21;73.59
46638;BME280;32365;46.938;7.390;2023-02-28T17:26:22;95623.06;;;-1.20;74.20
46638;BME280;32365;46.938;7.390;2023-02-28T17:28:50;95637.94;;;-1.07;73.27
46638;BME280;32365;46.938;7.390;2023-02-28T17:31:16;95633.56;;;-1.23;74.08
46638;BME280;32365;46.938;7.390;2023-02-28T17:33:43;95643.19;;;-1.09;73.89
46638;BME280;32365;46.938;7.390;2023-02-28T17:36:13;95639.44;;;-0.96;73.54
46638;BME280;32365;46.938;7.390;2023-02-28T17:38:41;95646.09;;;-1.21;74.11
46638;BME280;32365;46.938;7.390;2023-02-28T17:41:09;95650.03;;;-1.27;74.27
46638;BME280;32365;46.938;7.390;2023-02-28T17:43:36;95645.66;;;-1.17;73.79
46638;BME280;32365;46.938;7.390;2023-02-28T17:46:03;95645.53;;;-1.33;75.06
46638;BME280;32365;46.938;7.390;2023-02-28T17:48:31;95652.22;;;-1.32;75.01
46638;BME280;32365;46.938;7.390;2023-02-28T17:50:57;95648.94;;;-1.43;75.47
46638;BME280;32365;46.938;7.390;2023-02-28T17:53:24;95661.41;;;-1.49;75.30
46638;BME280;32365;46.938;7.390;2023-02-28T17:55:53;95652.00;;;-1.39;75.02
46638;BME280;32365;46.938;7.390;2023-02-28T17:58:20;95653.50;;;-1.28;74.76
46638;BME280;32365;46.938;7.390;2023-02-28T18:00:46;95657.41;;;-1.16;74.51
46638;BME280;32365;46.938;7.390;2023-02-28T18:03:18;95653.88;;;-1.23;74.06
46638;BME280;32365;46.938;7.390;2023-02-28T18:05:45;95659.41;;;-1.28;74.33
46638;BME280;32365;46.938;7.390;2023-02-28T18:08:12;95659.41;;;-1.28;74.23
46638;BME280;32365;46.938;7.390;2023-02-28T18:10:39;95658.88;;;-1.31;74.92
46638;BME280;32365;46.938;7.390;2023-02-28T18:13:07;95664.75;;;-1.31;74.39
46638;BME280;32365;46.938;7.390;2023-02-28T18:15:38;95656.03;;;-1.10;74.50
46638;BME280;32365;46.938;7.390;2023-02-28T18:18:04;95648.28;;;-1.09;74.15
46638;BME280;32365;46.938;7.390;2023-02-28T18:20:32;95651.41;;;-1.33;74.95
46638;BME280;32365;46.938;7.390;2023-02-28T18:22:58;95643.34;;;-1.46;75.26
46638;BME280;32365;46.938;7.390;2023-02-28T18:25:25;95649.75;;;-1.42;76.19
46638;BME280;32365;46.938;7.390;2023-02-28T18:27:51;95642.06;;;-1.32;75.41
46638;BME280;32365;46.938;7.390;2023-02-28T18:30:24;95632.53;;;-1.30;75.29
46638;BME280;32365;46.938;7.390;2023-02-28T18:32:51;95633.47;;;-1.31;75.45
46638;BME280;32365;46.938;7.390;2023-02-28T18:35:18;95635.06;;;-1.30;75.37
46638;BME280;32365;46.938;7.390;2023-02-28T18:38:00;95634.00;;;-1.28;74.99
46638;BME280;32365;46.938;7.390;2023-02-28T18:40:26;95633.19;;;-1.28;75.31
46638;BME280;32365;46.938;7.390;2023-02-28T18:42:53;95637.25;;;-1.17;74.72
46638;BME280;32365;46.938;7.390;2023-02-28T18:45:19;95631.28;;;-1.26;75.38
46638;BME280;32365;46.938;7.390;2023-02-28T18:47:47;95640.50;;;-1.25;75.14
46638;BME280;32365;46.938;7.390;2023-02-28T18:50:14;95641.31;;;-1.25;74.90
46638;BME280;32365;46.938;7.390;2023-02-28T18:52:40;95641.91;;;-1.31;74.96
46638;BME280;32365;46.938;7.390;2023-02-28T18:55:07;95640.75;;;-1.36;75.70
46638;BME280;32365;46.938;7.390;2023-02-28T18:57:34;95639.94;;;-1.37;75.84
46638;BME280;32365;46.938;7.390;2023-02-28T19:00:01;95639.53;;;-1.32;75.40
46638;BME280;32365;46.938;7.390;2023-02-28T19:02:27;95644.00;;;-1.26;75.32
46638;BME280;32365;46.938;7.390;2023-02-28T19:04:55;95637.84;;;-1.42;76.14
46638;BME280;32365;46.938;7.390;2023-02-28T19:07:22;95643.50;;;-1.48;76.18
46638;BME280;32365;46.938;7.390;2023-02-28T19:09:48;95642.13;;;-1.42;76.21
46638;BME280;32365;46.938;7.390;2023-02-28T19:12:15;95641.19;;;-1.41;76.39
46638;BME280;32365;46.938;7.390;2023-02-28T19:14:44;95638.78;;;-1.43;76.08
46638;BME280;32365;46.938;7.390;2023-02-28T19:17:11;95644.22;;;-1.37;76.09
46638;BME280;32365;46.938;7.390;2023-02-28T19:19:40;95643.00;;;-1.33;76.04
46638;BME280;32365;46.938;7.390;2023-02-28T19:22:08;95639.06;;;-1.10;75.31
46638;BME280;32365;46.938;7.390;2023-02-28T19:24:34;95638.25;;;-1.28;75.69
46638;BME280;32365;46.938;7.390;2023-02-28T19:27:01;95639.00;;;-1.36;76.45
46638;BME280;32365;46.938;7.390;2023-02-28T19:29:27;95639.88;;;-1.45;76.37
46638;BME280;32365;46.938;7.390;2023-02-28T19:31:53;95633.25;;;-1.38;75.97
46638;BME280;32365;46.938;7.390;2023-02-28T19:34:20;95639.94;;;-1.37;76.30
46638;BME280;32365;46.938;7.390;2023-02-28T19:36:46;95639.66;;;-1.34;75.90
46638;BME280;32365;46.938;7.390;2023-02-28T19:39:15;95643.94;;;-1.34;76.17
46638;BME280;32365;46.938;7.390;2023-02-28T19:41:43;95632.69;;;-1.32;76.60
46638;BME280;32365;46.938;7.390;2023-02-28T19:44:09;95643.06;;;-1.43;76.96
46638;BME280;32365;46.938;7.390;2023-02-28T19:46:36;95638.31;;;-1.20;76.36
46638;BME280;32365;46.938;7.390;2023-02-28T19:49:02;95630.91;;;-1.13;75.48
46638;BME280;32365;46.938;7.390;2023-02-28T19:51:29;95635.19;;;-1.14;75.94
46638;BME280;32365;46.938;7.390;2023-02-28T19:53:55;95640.44;;;-1.15;75.72
46638;BME280;32365;46.938;7.390;2023-02-28T19:56:23;95644.25;;;-1.11;75.04
46638;BME280;32365;46.938;7.390;2023-02-28T19:58:50;95632.56;;;-1.04;74.96
46638;BME280;32365;46.938;7.390;2023-02-28T20:01:18;95632.50;;;-1.12;76.31
46638;BME280;32365;46.938;7.390;2023-02-28T20:03:46;95623.72;;;-1.18;76.00
46638;BME280;32365;46.938;7.390;2023-02-28T20:06:13;95627.97;;;-1.27;75.99
46638;BME280;32365;46.938;7.390;2023-02-28T20:08:40;95622.38;;;-1.30;76.34
46638;BME280;32365;46.938;7.390;2023-02-28T20:11:08;95628.31;;;-1.21;76.72
46638;BME280;32365;46.938;7.390;2023-02-28T20:13:37;95627.38;;;-1.20;76.43
46638;BME280;32365;46.938;7.390;2023-02-28T20:16:05;95623.44;;;-1.15;76.51
46638;BME280;32365;46.938;7.390;2023-02-28T20:18:33;95616.09;;;-1.18;76.21
46638;BME280;32365;46.938;7.390;2023-02-28T20:21:00;95620.69;;;-1.21;76.69
46638;BME280;32365;46.938;7.390;2023-02-28T20:23:27;95610.56;;;-1.13;75.54
46638;BME280;32365;46.938;7.390;2023-02-28T20:25:57;95623.28;;;-1.13;76.00
46638;BME280;32365;46.938;7.390;2023-02-28T20:28:24;95615.41;;;-1.02;75.53
46638;BME280;32365;46.938;7.390;2023-02-28T20:30:52;95617.25;;;-1.12;76.01
46638;BME280;32365;46.938;7.390;2023-02-28T20:33:19;95611.19;;;-1.19;76.49
